createdAt,value
2022-12-31T00:01:59.161Z,-0.29
2022-12-31T00:04:30.232Z,-0.27
2022-12-31T00:07:03.445Z,-0.32
2022-12-31T00:09:34.341Z,-0.34
2022-12-31T00:12:04.947Z,-0.37
2022-12-31T00:14:35.460Z,-0.31
2022-12-31T00:17:06.262Z,-0.16
2022-12-31T00:19:36.763Z,-0.04
2022-12-31T00:22:10.315Z,0.00
2022-12-31T00:24:40.763Z,-0.03
2022-12-31T00:27:11.347Z,0.02
2022-12-31T00:29:41.829Z,0.15
2022-12-31T00:32:12.462Z,0.23
2022-12-31T00:34:42.964Z,0.25
2022-12-31T00:37:16.065Z,0.00
2022-12-31T00:39:46.395Z,-0.05
2022-12-31T00:42:16.928Z,-0.03
2022-12-31T00:44:47.356Z,0.06
2022-12-31T00:47:17.833Z,0.17
2022-12-31T00:49:48.562Z,0.22
2022-12-31T00:52:21.772Z,0.21
2022-12-31T00:54:52.181Z,0.33
2022-12-31T00:57:22.772Z,0.46
2022-12-31T00:59:53.211Z,0.52
2022-12-31T01:02:23.950Z,0.55
2022-12-31T01:04:54.642Z,0.50
2022-12-31T01:07:27.715Z,0.55
2022-12-31T01:09:58.139Z,0.63
2022-12-31T01:12:28.798Z,0.65
2022-12-31T01:14:59.195Z,0.60
2022-12-31T01:17:29.916Z,0.57
2022-12-31T01:20:00.394Z,0.50
2022-12-31T01:22:33.517Z,0.43
2022-12-31T01:25:03.936Z,0.55
2022-12-31T01:27:34.501Z,0.65
2022-12-31T01:30:05.897Z,0.73
2022-12-31T01:32:36.444Z,0.73
2022-12-31T01:35:09.184Z,0.70
2022-12-31T01:37:42.248Z,0.64
2022-12-31T01:40:15.952Z,0.60
2022-12-31T01:42:46.585Z,0.57
2022-12-31T01:45:17.448Z,0.71
2022-12-31T01:47:51.431Z,0.81
2022-12-31T01:50:27.371Z,0.90
2022-12-31T01:53:03.900Z,0.84
2022-12-31T01:55:38.116Z,0.76
2022-12-31T01:58:12.660Z,0.78
2022-12-31T02:00:43.263Z,0.84
2022-12-31T02:03:14.608Z,0.70
2022-12-31T02:05:51.107Z,0.36
2022-12-31T02:08:24.495Z,0.06
2022-12-31T02:10:55.006Z,-0.10
2022-12-31T02:13:26.258Z,-0.02
2022-12-31T02:16:11.158Z,0.16
2022-12-31T02:18:59.129Z,0.06
2022-12-31T02:21:43.486Z,-0.27
2022-12-31T02:24:58.304Z,-0.50
2022-12-31T02:27:45.138Z,-0.61
2022-12-31T02:30:21.533Z,-0.61
2022-12-31T02:33:02.790Z,-0.57
2022-12-31T02:35:40.583Z,-0.42
2022-12-31T02:38:14.918Z,-0.25
2022-12-31T02:40:45.373Z,-0.08
2022-12-31T02:43:15.865Z,0.07
2022-12-31T02:45:54.165Z,0.19
2022-12-31T02:48:42.635Z,0.28
2022-12-31T02:51:28.360Z,0.23
2022-12-31T02:54:20.672Z,0.02
2022-12-31T02:57:01.120Z,-0.24
2022-12-31T02:59:53.087Z,-0.42
2022-12-31T03:02:30.129Z,-0.56
2022-12-31T03:05:02.527Z,-0.55
2022-12-31T03:07:35.213Z,-0.50
2022-12-31T03:10:05.866Z,-0.38
2022-12-31T03:12:48.325Z,-0.24
2022-12-31T03:15:24.688Z,-0.23
2022-12-31T03:18:04.130Z,-0.05
2022-12-31T03:20:49.506Z,0.00
2022-12-31T03:23:23.165Z,0.07
2022-12-31T03:25:51.439Z,0.09
2022-12-31T03:28:23.520Z,0.04
2022-12-31T03:30:55.974Z,-0.05
2022-12-31T03:33:33.086Z,-0.06
2022-12-31T03:36:07.232Z,-0.02
2022-12-31T03:38:37.839Z,0.06
2022-12-31T03:41:08.889Z,0.10
2022-12-31T03:43:39.494Z,0.10
2022-12-31T03:46:10.129Z,0.09
2022-12-31T03:48:43.338Z,0.08
2022-12-31T03:51:14.350Z,0.08
2022-12-31T03:53:44.912Z,0.05
2022-12-31T03:56:15.372Z,-0.11
2022-12-31T03:58:45.895Z,-0.30
2022-12-31T04:01:16.410Z,-0.48
2022-12-31T04:03:49.668Z,-0.59
2022-12-31T04:06:20.367Z,-0.61
2022-12-31T04:08:50.953Z,-0.56
2022-12-31T04:11:21.429Z,-0.49
2022-12-31T04:13:51.954Z,-0.38
2022-12-31T04:16:22.447Z,-0.32
2022-12-31T04:18:55.771Z,-0.25
2022-12-31T04:21:31.442Z,-0.25
2022-12-31T04:24:05.614Z,-0.27
2022-12-31T04:26:36.159Z,-0.28
2022-12-31T04:29:07.122Z,-0.33
2022-12-31T04:31:37.629Z,-0.39
2022-12-31T04:34:11.113Z,-0.40
2022-12-31T04:36:41.784Z,-0.42
2022-12-31T04:39:12.526Z,-0.37
2022-12-31T04:41:42.952Z,-0.29
2022-12-31T04:44:13.628Z,-0.18
2022-12-31T04:46:44.136Z,-0.03
2022-12-31T04:49:17.442Z,0.11
2022-12-31T04:51:48.280Z,0.24
2022-12-31T04:54:18.818Z,0.36
2022-12-31T04:56:49.280Z,0.45
2022-12-31T04:59:19.884Z,0.53
2022-12-31T05:01:50.517Z,0.62
2022-12-31T05:04:24.396Z,0.65
2022-12-31T05:06:54.821Z,0.70
2022-12-31T05:09:27.772Z,0.73
2022-12-31T05:11:58.356Z,0.76
2022-12-31T05:14:28.924Z,0.77
2022-12-31T05:16:59.588Z,0.81
2022-12-31T05:19:32.804Z,0.84
2022-12-31T05:22:15.577Z,0.87
2022-12-31T05:24:46.018Z,0.90
2022-12-31T05:27:18.554Z,0.93
2022-12-31T05:29:49.105Z,0.93
2022-12-31T05:32:19.911Z,0.95
2022-12-31T05:34:53.822Z,0.94
2022-12-31T05:37:24.362Z,1.00
2022-12-31T05:39:55.116Z,1.03
2022-12-31T05:42:25.566Z,1.07
2022-12-31T05:44:56.164Z,1.10
2022-12-31T05:47:26.749Z,1.12
2022-12-31T05:50:00.064Z,1.12
2022-12-31T05:52:30.630Z,1.13
2022-12-31T05:55:01.326Z,1.11
2022-12-31T05:57:31.916Z,1.11
2022-12-31T06:00:02.561Z,1.11
2022-12-31T06:02:44.310Z,1.08
2022-12-31T06:05:22.469Z,1.06
2022-12-31T06:07:56.359Z,1.02
2022-12-31T06:10:26.880Z,0.99
2022-12-31T06:12:57.417Z,0.96
2022-12-31T06:15:28.020Z,0.94
2022-12-31T06:17:58.494Z,0.91
2022-12-31T06:20:31.791Z,0.95
2022-12-31T06:23:02.228Z,0.96
2022-12-31T06:25:32.777Z,0.95
2022-12-31T06:28:04.248Z,0.97
2022-12-31T06:30:34.802Z,0.99
2022-12-31T06:33:05.280Z,1.01
2022-12-31T06:35:38.528Z,1.04
2022-12-31T06:38:09.181Z,1.08
2022-12-31T06:40:40.809Z,1.08
2022-12-31T06:43:12.850Z,1.13
2022-12-31T06:45:44.340Z,1.13
2022-12-31T06:48:14.997Z,1.16
2022-12-31T06:50:48.203Z,1.19
2022-12-31T06:53:18.793Z,1.14
2022-12-31T06:55:51.664Z,1.29
2022-12-31T06:58:22.782Z,1.38
2022-12-31T07:01:00.587Z,1.48
2022-12-31T07:03:37.319Z,1.60
2022-12-31T07:06:16.465Z,1.70
2022-12-31T07:08:53.651Z,1.86
2022-12-31T07:11:26.761Z,2.01
2022-12-31T07:14:07.068Z,2.19
2022-12-31T07:16:53.463Z,2.36
2022-12-31T07:19:39.654Z,2.57
2022-12-31T07:22:18.234Z,2.74
2022-12-31T07:24:49.407Z,2.92
2022-12-31T07:27:40.268Z,3.08
2022-12-31T07:30:14.861Z,3.23
2022-12-31T07:33:17.160Z,3.40
2022-12-31T07:35:57.152Z,3.56
2022-12-31T07:38:39.845Z,3.70
2022-12-31T07:41:18.883Z,3.87
2022-12-31T07:44:01.510Z,4.04
2022-12-31T07:46:39.078Z,4.19
2022-12-31T07:49:14.239Z,4.36
2022-12-31T07:51:45.729Z,4.53
2022-12-31T07:54:18.903Z,4.67
2022-12-31T07:56:49.666Z,4.82
2022-12-31T07:59:35.683Z,4.97
2022-12-31T08:02:08.656Z,5.14
2022-12-31T08:04:51.056Z,5.33
2022-12-31T08:07:31.976Z,5.52
2022-12-31T08:10:17.511Z,5.76
2022-12-31T08:12:49.972Z,5.94
2022-12-31T08:15:28.480Z,6.09
2022-12-31T08:18:01.255Z,6.25
2022-12-31T08:20:35.600Z,6.37
2022-12-31T08:23:27.815Z,6.48
2022-12-31T08:26:13.756Z,6.65
2022-12-31T08:29:04.993Z,6.80
2022-12-31T08:31:43.443Z,6.93
2022-12-31T08:34:25.645Z,7.07
2022-12-31T08:37:03.269Z,7.19
2022-12-31T08:39:46.538Z,7.33
2022-12-31T08:42:28.705Z,7.43
2022-12-31T08:45:06.496Z,7.55
2022-12-31T08:47:48.875Z,7.69
2022-12-31T08:50:20.992Z,7.82
2022-12-31T08:52:52.133Z,7.93
2022-12-31T08:55:23.715Z,8.05
2022-12-31T08:58:15.628Z,8.13
2022-12-31T09:00:46.235Z,8.20
2022-12-31T09:03:34.841Z,8.30
2022-12-31T09:06:13.558Z,8.38
2022-12-31T09:08:54.733Z,8.42
2022-12-31T09:11:32.466Z,8.50
2022-12-31T09:14:32.660Z,8.56
2022-12-31T09:17:07.697Z,8.63
2022-12-31T09:19:38.154Z,8.70
2022-12-31T09:22:09.606Z,8.77
2022-12-31T09:24:40.849Z,8.83
2022-12-31T09:27:25.458Z,8.92
2022-12-31T09:30:06.843Z,9.00
2022-12-31T09:32:55.337Z,9.08
2022-12-31T09:35:37.545Z,9.15
2022-12-31T09:38:16.897Z,9.20
2022-12-31T09:40:58.896Z,9.25
2022-12-31T09:44:05.349Z,9.32
2022-12-31T09:47:17.915Z,9.41
2022-12-31T09:50:22.506Z,9.48
2022-12-31T09:53:09.773Z,9.56
2022-12-31T09:55:48.698Z,9.64
2022-12-31T09:58:35.629Z,9.70
2022-12-31T10:01:17.088Z,9.76
2022-12-31T10:04:09.975Z,9.75
2022-12-31T10:06:49.832Z,9.88
2022-12-31T10:09:34.004Z,9.91
2022-12-31T10:12:21.783Z,10.01
2022-12-31T10:15:08.861Z,10.11
2022-12-31T10:17:57.834Z,10.24
2022-12-31T10:20:45.249Z,10.35
2022-12-31T10:24:00.299Z,10.51
2022-12-31T10:26:40.735Z,10.64
2022-12-31T10:29:27.099Z,10.78
2022-12-31T10:32:12.333Z,10.93
2022-12-31T10:34:56.390Z,11.08
2022-12-31T10:37:42.782Z,11.24
2022-12-31T10:40:26.196Z,11.41
2022-12-31T10:43:26.375Z,11.60
2022-12-31T10:46:24.295Z,11.81
2022-12-31T10:49:34.848Z,12.01
2022-12-31T10:52:41.436Z,12.21
2022-12-31T10:55:53.464Z,12.39
2022-12-31T10:58:55.058Z,12.56
2022-12-31T11:01:36.906Z,12.69
2022-12-31T11:04:35.983Z,12.79
2022-12-31T11:07:44.259Z,12.97
2022-12-31T11:10:56.137Z,13.15
2022-12-31T11:13:44.818Z,13.31
2022-12-31T11:16:41.695Z,13.43
2022-12-31T11:19:22.307Z,13.53
2022-12-31T11:22:15.909Z,13.62
2022-12-31T11:25:06.072Z,13.67
2022-12-31T11:27:56.472Z,13.72
2022-12-31T11:30:35.935Z,13.77
2022-12-31T11:33:20.227Z,13.79
2022-12-31T11:36:10.589Z,13.80
2022-12-31T11:38:46.309Z,13.82
2022-12-31T11:41:24.456Z,13.83
2022-12-31T11:44:06.004Z,13.83
2022-12-31T11:47:03.322Z,13.82
2022-12-31T11:49:53.089Z,13.84
2022-12-31T11:52:39.509Z,13.86
2022-12-31T11:55:46.216Z,13.87
2022-12-31T11:58:20.603Z,13.91
2022-12-31T12:00:59.701Z,13.96
2022-12-31T12:03:30.911Z,13.99
2022-12-31T12:06:02.197Z,14.02
2022-12-31T12:08:34.942Z,14.04
2022-12-31T12:11:10.503Z,14.08
2022-12-31T12:13:40.990Z,14.11
2022-12-31T12:16:14.299Z,14.09
2022-12-31T12:18:48.774Z,14.15
2022-12-31T12:21:22.638Z,14.20
2022-12-31T12:23:59.832Z,14.19
2022-12-31T12:26:32.793Z,14.19
2022-12-31T12:29:11.380Z,14.18
2022-12-31T12:31:45.253Z,14.15
2022-12-31T12:34:27.313Z,14.13
2022-12-31T12:36:58.260Z,14.11
2022-12-31T12:39:31.083Z,14.08
2022-12-31T12:42:06.963Z,14.06
2022-12-31T12:44:38.680Z,14.03
2022-12-31T12:47:17.357Z,14.04
2022-12-31T12:49:49.897Z,13.98
2022-12-31T12:52:46.587Z,13.92
2022-12-31T12:55:24.320Z,13.84
2022-12-31T12:58:04.556Z,13.77
2022-12-31T13:00:41.313Z,13.70
2022-12-31T13:04:31.969Z,13.66
2022-12-31T13:06:53.596Z,13.60
2022-12-31T13:09:37.993Z,13.56
2022-12-31T13:12:17.799Z,13.51
2022-12-31T13:14:57.099Z,13.45
2022-12-31T13:17:42.158Z,13.39
2022-12-31T13:20:22.578Z,13.33
2022-12-31T13:23:05.470Z,13.26
2022-12-31T13:25:46.200Z,13.22
2022-12-31T13:28:20.110Z,13.15
2022-12-31T13:30:53.479Z,13.07
2022-12-31T13:33:27.920Z,13.06
2022-12-31T13:36:01.407Z,13.01
2022-12-31T13:38:39.760Z,12.94
2022-12-31T13:41:16.592Z,12.90
2022-12-31T13:43:53.226Z,12.83
2022-12-31T13:46:40.902Z,12.76
2022-12-31T13:49:22.172Z,12.66
2022-12-31T13:51:55.552Z,12.60
2022-12-31T13:54:37.944Z,12.54
2022-12-31T13:57:14.733Z,12.49
2022-12-31T13:59:51.682Z,12.44
2022-12-31T14:02:34.577Z,12.39
2022-12-31T14:05:12.400Z,12.31
2022-12-31T14:07:50.545Z,12.26
2022-12-31T14:10:31.309Z,12.21
2022-12-31T14:13:11.489Z,12.13
2022-12-31T14:15:50.049Z,12.05
2022-12-31T14:18:26.635Z,11.97
2022-12-31T14:21:05.131Z,11.87
2022-12-31T14:23:47.682Z,11.78
2022-12-31T14:26:28.371Z,11.68
2022-12-31T14:29:07.454Z,11.58
2022-12-31T14:32:06.746Z,11.48
2022-12-31T14:34:50.389Z,11.35
2022-12-31T14:37:30.347Z,11.22
2022-12-31T14:40:09.471Z,11.06
2022-12-31T14:42:49.342Z,11.00
2022-12-31T14:45:47.608Z,10.28
2022-12-31T14:48:32.348Z,9.18
2022-12-31T14:51:05.557Z,8.04
2022-12-31T14:53:36.085Z,7.09
2022-12-31T14:56:08.936Z,6.31
2022-12-31T14:58:43.884Z,5.66
2022-12-31T15:01:26.340Z,5.21
2022-12-31T15:03:58.968Z,4.92
2022-12-31T15:06:51.006Z,4.76
2022-12-31T15:09:44.062Z,4.72
2022-12-31T15:12:30.076Z,4.73
2022-12-31T15:15:10.885Z,4.75
2022-12-31T15:17:51.995Z,4.75
2022-12-31T15:20:51.116Z,4.84
2022-12-31T15:23:25.163Z,4.87
2022-12-31T15:26:01.342Z,4.80
2022-12-31T15:28:38.683Z,4.57
2022-12-31T15:31:20.996Z,4.37
2022-12-31T15:33:59.955Z,4.16
2022-12-31T15:36:33.347Z,4.05
2022-12-31T15:39:10.086Z,4.01
2022-12-31T15:42:03.094Z,3.97
2022-12-31T15:44:41.483Z,4.02
2022-12-31T15:47:20.720Z,4.04
2022-12-31T15:49:51.694Z,4.16
2022-12-31T15:52:28.721Z,4.15
2022-12-31T15:55:00.589Z,4.11
2022-12-31T15:57:39.993Z,4.03
2022-12-31T16:00:18.729Z,3.85
2022-12-31T16:02:55.821Z,3.73
2022-12-31T16:05:28.650Z,3.59
2022-12-31T16:08:01.270Z,3.47
2022-12-31T16:10:34.886Z,3.36
2022-12-31T16:13:06.378Z,3.29
2022-12-31T16:15:37.946Z,3.22
2022-12-31T16:18:20.749Z,3.11
2022-12-31T16:20:54.647Z,3.04
2022-12-31T16:23:27.742Z,2.99
2022-12-31T16:26:01.514Z,2.99
2022-12-31T16:28:33.920Z,3.01
2022-12-31T16:31:07.123Z,3.10
2022-12-31T16:33:40.457Z,3.13
2022-12-31T16:36:23.659Z,3.30
2022-12-31T16:38:59.736Z,3.37
2022-12-31T16:41:36.726Z,3.58
2022-12-31T16:44:07.333Z,3.78
2022-12-31T16:46:39.638Z,4.00
2022-12-31T16:49:22.304Z,4.22
2022-12-31T16:51:53.131Z,4.42
2022-12-31T16:54:33.972Z,4.64
2022-12-31T16:57:05.828Z,4.81
2022-12-31T16:59:42.900Z,4.98
2022-12-31T17:02:22.026Z,5.09
2022-12-31T17:04:56.675Z,5.23
2022-12-31T17:07:47.876Z,5.36
2022-12-31T17:10:27.036Z,5.44
2022-12-31T17:13:28.420Z,5.53
2022-12-31T17:15:50.928Z,5.60
2022-12-31T17:18:23.543Z,5.65
2022-12-31T17:20:58.341Z,5.70
2022-12-31T17:23:31.937Z,5.72
2022-12-31T17:26:06.285Z,5.74
2022-12-31T17:28:45.043Z,5.73
2022-12-31T17:31:38.324Z,5.70
2022-12-31T17:34:32.411Z,5.69
2022-12-31T17:37:18.091Z,5.70
2022-12-31T17:39:52.120Z,5.66
2022-12-31T17:42:33.062Z,5.66
2022-12-31T17:45:05.623Z,5.62
2022-12-31T17:47:41.513Z,5.62
2022-12-31T17:50:23.329Z,5.58
2022-12-31T17:53:00.412Z,5.55
2022-12-31T17:55:32.054Z,5.31
2022-12-31T17:58:08.128Z,5.19
2022-12-31T18:00:40.251Z,4.95
2022-12-31T18:03:10.883Z,4.83
2022-12-31T18:05:41.541Z,4.58
2022-12-31T18:08:14.851Z,4.62
2022-12-31T18:10:47.678Z,4.54
2022-12-31T18:13:20.816Z,4.49
2022-12-31T18:15:51.316Z,4.37
2022-12-31T18:18:25.480Z,4.19
2022-12-31T18:20:59.804Z,3.93
2022-12-31T18:23:38.642Z,3.92
2022-12-31T18:26:09.191Z,3.84
2022-12-31T18:28:39.774Z,3.76
2022-12-31T18:31:10.445Z,3.67
2022-12-31T18:33:41.118Z,3.76
2022-12-31T18:36:15.723Z,3.67
2022-12-31T18:38:48.906Z,3.39
2022-12-31T18:41:21.602Z,3.48
2022-12-31T18:43:52.476Z,3.47
2022-12-31T18:46:25.518Z,3.43
2022-12-31T18:48:56.100Z,3.31
2022-12-31T18:51:32.201Z,3.31
2022-12-31T18:54:07.010Z,3.34
2022-12-31T18:56:41.814Z,3.29
2022-12-31T18:59:15.875Z,3.18
2022-12-31T19:01:46.561Z,3.10
2022-12-31T19:04:26.672Z,3.13
2022-12-31T19:06:59.081Z,3.11
2022-12-31T19:09:50.111Z,2.85
2022-12-31T19:12:22.662Z,2.43
2022-12-31T19:14:53.063Z,2.37
2022-12-31T19:17:23.616Z,2.40
2022-12-31T19:19:54.116Z,2.19
2022-12-31T19:22:24.687Z,1.69
2022-12-31T19:24:57.903Z,1.26
2022-12-31T19:27:28.408Z,0.93
2022-12-31T19:30:00.724Z,0.73
2022-12-31T19:32:31.475Z,0.61
2022-12-31T19:35:02.052Z,0.54
2022-12-31T19:37:32.794Z,0.53
2022-12-31T19:40:06.086Z,0.54
2022-12-31T19:42:36.527Z,0.54
2022-12-31T19:45:08.154Z,0.61
2022-12-31T19:47:38.644Z,0.64
2022-12-31T19:50:10.000Z,0.70
2022-12-31T19:52:40.648Z,0.73
2022-12-31T19:55:16.296Z,0.79
2022-12-31T19:57:46.518Z,0.78
2022-12-31T20:00:19.012Z,0.69
2022-12-31T20:02:51.699Z,0.60
2022-12-31T20:05:23.198Z,0.48
2022-12-31T20:07:53.739Z,0.35
2022-12-31T20:10:26.944Z,0.29
2022-12-31T20:12:57.683Z,0.29
2022-12-31T20:15:28.267Z,0.31
2022-12-31T20:18:00.439Z,0.36
2022-12-31T20:20:32.582Z,0.47
2022-12-31T20:23:03.081Z,0.57
2022-12-31T20:25:36.315Z,0.68
2022-12-31T20:28:07.042Z,0.73
2022-12-31T20:30:39.998Z,0.68
2022-12-31T20:33:15.762Z,0.55
2022-12-31T20:35:47.894Z,0.39
2022-12-31T20:38:18.369Z,0.24
2022-12-31T20:40:51.564Z,0.10
2022-12-31T20:43:22.200Z,0.05
2022-12-31T20:45:52.808Z,0.03
2022-12-31T20:48:23.438Z,0.07
2022-12-31T20:50:57.906Z,0.17
2022-12-31T20:53:28.490Z,0.24
2022-12-31T20:56:06.252Z,0.41
2022-12-31T20:58:36.785Z,0.60
2022-12-31T21:01:09.855Z,0.77
2022-12-31T21:06:33.790Z,1.17
2022-12-31T21:09:06.405Z,1.32
2022-12-31T21:11:51.969Z,1.51
2022-12-31T21:14:22.532Z,1.64
2022-12-31T21:16:53.105Z,1.76
2022-12-31T21:19:23.672Z,1.85
2022-12-31T21:21:54.151Z,1.93
2022-12-31T21:24:24.810Z,1.97
2022-12-31T21:26:58.601Z,2.05
2022-12-31T21:29:34.310Z,2.10
2022-12-31T21:32:05.778Z,2.17
2022-12-31T21:34:36.842Z,2.17
2022-12-31T21:37:07.513Z,2.22
2022-12-31T21:39:38.139Z,2.22
2022-12-31T21:42:11.467Z,2.25
2022-12-31T21:44:42.183Z,2.24
2022-12-31T21:47:41.216Z,2.21
2022-12-31T21:50:16.097Z,2.20
2022-12-31T21:52:46.684Z,2.20
2022-12-31T21:55:29.525Z,2.20
2022-12-31T22:01:07.144Z,2.20
2022-12-31T22:03:37.834Z,2.20
2022-12-31T22:06:12.440Z,2.21
2022-12-31T22:08:44.356Z,2.21
2022-12-31T22:11:16.357Z,2.23
2022-12-31T22:13:50.614Z,2.24
2022-12-31T22:16:22.132Z,2.24
2022-12-31T22:18:53.441Z,2.25
2022-12-31T22:21:26.845Z,2.23
2022-12-31T22:23:59.758Z,2.21
2022-12-31T22:26:31.975Z,2.20
2022-12-31T22:29:05.088Z,2.19
2022-12-31T22:31:35.677Z,2.20
2022-12-31T22:34:06.256Z,2.20
2022-12-31T22:36:37.005Z,2.19
2022-12-31T22:39:07.537Z,2.16
2022-12-31T22:41:40.179Z,2.14
2022-12-31T22:44:13.240Z,2.14
2022-12-31T22:46:45.983Z,2.12
2022-12-31T22:49:17.391Z,1.96
2022-12-31T22:51:56.550Z,1.69
2022-12-31T22:54:30.270Z,1.40
2022-12-31T22:57:01.487Z,1.16
2022-12-31T22:59:34.605Z,0.94
2022-12-31T23:02:05.168Z,0.77
2022-12-31T23:04:36.031Z,0.68
2022-12-31T23:07:07.976Z,0.61
2022-12-31T23:09:50.784Z,0.50
2022-12-31T23:12:21.443Z,0.51
2022-12-31T23:15:06.988Z,0.56
2022-12-31T23:17:49.775Z,0.58
2022-12-31T23:20:36.223Z,0.53
2022-12-31T23:23:11.704Z,0.39
2022-12-31T23:25:42.948Z,0.36
2022-12-31T23:28:16.070Z,0.41
2022-12-31T23:30:49.237Z,0.45
2022-12-31T23:33:22.511Z,0.47
2022-12-31T23:35:53.311Z,0.51
2022-12-31T23:38:24.006Z,0.59
2022-12-31T23:40:54.551Z,0.59
2022-12-31T23:43:25.606Z,0.55
2022-12-31T23:45:58.795Z,0.60
2022-12-31T23:48:29.370Z,0.67
2022-12-31T23:50:59.876Z,0.73
2022-12-31T23:53:30.559Z,0.75
2022-12-31T23:56:14.846Z,0.74
2022-12-31T23:58:48.254Z,0.83
